Hauptseite
METAR-TAF:

METAR-TAF

Flughäfen :

Flughafen Montpellier

Montpellier, Frankreich

Breite: 43-35N, Länge: 003-58E, Höhe: 5 m

Beobachtung

Neuester Wetterbericht von vor 27 Minuten, um 13:30 UTC
Wind 8 kt aus Süd
Temperatur 14°C
Luftfeuchtigkeit 67%
Luftdruck 1024 hPa
Sichtweite 10 km oder mehr
keine Wolken unter 1500 m und keine Kumulonimbus oder Gewitterwolken

METAR: LFMT 201330Z AUTO 19008KT CAVOK 14/08 Q1024 NOSIG

Zeit: 14:57 (13:57 UTC)

Prognose

Neuester Wetterbericht von vor 5 Stunden und 57 Minuten, um 08:00 UTC
Gültige Prognose vom 20 um 09 UTC bis 21 um 09 UTC
Wind 5 kt aus unterschiedlichen Richtungen
Sichtweite 10 km oder mehr
keine Wolken unter 1500 m und keine Kumulonimbus oder Gewitterwolken
Übergehend zu
vom 20 um 20 UTC bis 20 um 23 UTC
Wind 10 kt aus West/Nordwest

TAF: LFMT 200800Z 2009/2109 VRB05KT CAVOK BECMG 2020/2023 30010KT

Wetterbeobachtungen und Prognosen von mehr als 4000 Flughäfen (METAR und TAF Bericht).

Die verfügbaren Stationen werden durch gelbe und rote Markierungen auf der Karte dargestellt.

Führen Sie die Maus auf sie, um den Namen der Station zu sehen.

Darauf klicken, um die Beobachtung von Wetterbeobachtungen und Prognosen zu sehen.

Um die Karte zu ändern : klicken Sie auf den grünen Tasten mit einem schwarzen Kreuz Zum Vergrößern, auf den grünen Button mit einem Gedankenstrich zu verkleinern, oder auf die grünen Pfeile für benachbarte Karten.


METAR-TAF: